createdAt,value
2022-11-10T00:02:44.540Z,96.90
2022-11-10T00:05:48.538Z,96.80
2022-11-10T00:08:52.648Z,96.60
2022-11-10T00:11:56.998Z,96.60
2022-11-10T00:15:29.787Z,96.70
2022-11-10T00:18:34.314Z,96.80
2022-11-10T00:21:38.638Z,96.60
2022-11-10T00:24:44.866Z,96.70
2022-11-10T00:28:14.954Z,96.70
2022-11-10T00:31:19.363Z,96.80
2022-11-10T00:34:25.079Z,96.90
2022-11-10T00:37:30.454Z,97.10
2022-11-10T00:40:37.634Z,97.20
2022-11-10T00:43:42.067Z,97.20
2022-11-10T00:46:46.815Z,97.40
2022-11-10T00:49:50.911Z,97.40
2022-11-10T00:52:55.022Z,97.30
2022-11-10T00:55:59.525Z,97.30
2022-11-10T00:59:04.146Z,97.40
2022-11-10T01:02:11.081Z,97.40
2022-11-10T01:05:14.990Z,97.30
2022-11-10T01:08:20.487Z,97.40
2022-11-10T01:11:27.479Z,97.60
2022-11-10T01:14:31.682Z,97.80
2022-11-10T01:17:35.759Z,97.80
2022-11-10T01:20:51.330Z,97.60
2022-11-10T01:23:55.881Z,97.40
2022-11-10T01:27:00.038Z,97.40
2022-11-10T01:30:05.109Z,97.40
2022-11-10T01:33:09.646Z,97.50
2022-11-10T01:36:17.326Z,97.50
2022-11-10T01:39:21.553Z,97.70
2022-11-10T01:42:43.551Z,97.70
2022-11-10T01:45:55.751Z,97.70
2022-11-10T01:49:02.183Z,97.60
2022-11-10T01:52:15.990Z,97.50
2022-11-10T01:55:20.699Z,97.70
2022-11-10T01:58:32.721Z,97.80
2022-11-10T02:01:40.335Z,97.60
2022-11-10T02:04:44.831Z,97.60
2022-11-10T02:07:51.574Z,97.70
2022-11-10T02:10:59.931Z,97.70
2022-11-10T02:14:05.151Z,97.60
2022-11-10T02:17:10.033Z,97.70
2022-11-10T02:20:17.463Z,97.80
2022-11-10T02:23:30.808Z,97.80
2022-11-10T02:26:42.211Z,97.80
2022-11-10T02:29:48.620Z,97.90
2022-11-10T02:32:53.014Z,98.00
2022-11-10T02:35:57.945Z,98.20
2022-11-10T02:39:02.700Z,98.20
2022-11-10T02:42:10.555Z,98.10
2022-11-10T02:45:42.387Z,98.10
2022-11-10T02:48:46.477Z,98.10
2022-11-10T02:51:51.271Z,98.10
2022-11-10T02:54:55.729Z,98.10
2022-11-10T02:58:00.315Z,98.10
2022-11-10T03:01:05.859Z,98.10
2022-11-10T03:04:10.336Z,98.10
2022-11-10T03:07:14.844Z,97.90
2022-11-10T03:10:19.226Z,97.90
2022-11-10T03:13:27.380Z,97.90
2022-11-10T03:16:36.352Z,98.00
2022-11-10T03:19:40.748Z,98.10
2022-11-10T03:22:45.485Z,98.20
2022-11-10T03:25:49.683Z,98.20
2022-11-10T03:28:54.058Z,98.10
2022-11-10T03:31:58.513Z,98.00
2022-11-10T03:35:03.580Z,98.10
2022-11-10T03:38:08.027Z,98.10
2022-11-10T03:41:19.333Z,98.00
2022-11-10T03:44:24.637Z,97.90
2022-11-10T03:47:31.505Z,97.80
2022-11-10T03:50:36.368Z,97.80
2022-11-10T03:53:40.659Z,97.80
2022-11-10T03:56:44.962Z,97.80
2022-11-10T03:59:49.161Z,97.80
2022-11-10T04:02:53.572Z,97.80
2022-11-10T04:06:16.269Z,98.00
2022-11-10T04:09:23.672Z,98.10
2022-11-10T04:12:46.634Z,98.20
2022-11-10T04:15:52.095Z,98.30
2022-11-10T04:18:56.290Z,98.30
2022-11-10T04:22:03.488Z,98.30
2022-11-10T04:25:08.074Z,98.40
2022-11-10T04:28:12.180Z,98.40
2022-11-10T04:31:22.807Z,98.50
2022-11-10T04:34:27.210Z,98.70
2022-11-10T04:37:31.644Z,98.80
2022-11-10T04:40:35.891Z,98.80
2022-11-10T04:43:40.823Z,98.80
2022-11-10T04:46:45.446Z,98.80
2022-11-10T04:49:50.929Z,98.80
2022-11-10T04:52:55.138Z,98.80
2022-11-10T04:55:59.627Z,98.70
2022-11-10T04:59:03.847Z,98.80
2022-11-10T05:02:11.255Z,98.80
2022-11-10T05:05:19.702Z,98.90
2022-11-10T05:08:24.008Z,98.90
2022-11-10T05:11:28.540Z,98.90
2022-11-10T05:14:35.700Z,98.90
2022-11-10T05:17:39.869Z,98.90
2022-11-10T05:20:44.257Z,98.90
2022-11-10T05:23:48.895Z,98.90
2022-11-10T05:26:53.405Z,99.00
2022-11-10T05:29:57.390Z,98.90
2022-11-10T05:33:02.588Z,98.80
2022-11-10T05:36:08.420Z,99.00
2022-11-10T05:39:12.855Z,99.10
2022-11-10T05:42:17.207Z,99.20
2022-11-10T05:45:23.491Z,99.20
2022-11-10T05:48:27.550Z,99.20
2022-11-10T05:51:32.308Z,99.00
2022-11-10T05:54:36.670Z,99.00
2022-11-10T05:57:45.078Z,99.20
2022-11-10T06:00:49.748Z,99.30
2022-11-10T06:03:54.085Z,99.40
2022-11-10T06:06:58.705Z,99.50
2022-11-10T06:10:02.610Z,99.40
2022-11-10T06:13:07.278Z,99.70
2022-11-10T06:16:11.895Z,99.40
2022-11-10T06:19:16.030Z,99.30
2022-11-10T06:22:20.801Z,99.10
2022-11-10T06:25:32.204Z,99.10
2022-11-10T06:28:36.703Z,98.90
2022-11-10T06:31:40.835Z,99.20
2022-11-10T06:34:45.496Z,98.80
2022-11-10T06:38:16.461Z,98.70
2022-11-10T06:41:25.193Z,98.70
2022-11-10T06:44:29.446Z,98.80
2022-11-10T06:47:33.751Z,98.90
2022-11-10T06:50:38.490Z,99.00
2022-11-10T06:53:42.873Z,98.90
2022-11-10T06:56:46.952Z,99.10
2022-11-10T06:59:51.214Z,99.10
2022-11-10T07:03:06.866Z,99.10
2022-11-10T07:06:11.751Z,99.10
2022-11-10T07:09:16.260Z,99.00
2022-11-10T07:12:22.891Z,99.10
2022-11-10T07:15:27.365Z,99.00
2022-11-10T07:18:31.343Z,99.10
2022-11-10T07:21:35.924Z,99.10
2022-11-10T07:24:40.428Z,99.10
2022-11-10T07:27:44.863Z,99.00
2022-11-10T07:30:48.959Z,99.10
2022-11-10T07:33:54.595Z,99.10
2022-11-10T07:36:59.230Z,99.00
2022-11-10T07:40:06.634Z,99.00
2022-11-10T07:43:10.806Z,98.90
2022-11-10T07:46:15.023Z,98.90
2022-11-10T07:49:19.513Z,98.90
2022-11-10T07:52:23.803Z,99.00
2022-11-10T07:55:31.078Z,99.20
2022-11-10T07:58:35.470Z,99.30
2022-11-10T08:01:39.854Z,99.30
2022-11-10T08:04:44.390Z,99.10
2022-11-10T08:07:48.773Z,98.90
2022-11-10T08:10:52.998Z,98.80
2022-11-10T08:13:57.493Z,98.80
2022-11-10T08:17:01.843Z,98.50
2022-11-10T08:20:06.899Z,98.70
2022-11-10T08:23:11.737Z,98.80
2022-11-10T08:26:17.867Z,98.20
2022-11-10T08:29:22.122Z,97.90
2022-11-10T08:32:28.605Z,97.70
2022-11-10T08:35:36.379Z,97.70
2022-11-10T08:38:41.079Z,97.40
2022-11-10T08:41:45.806Z,97.10
2022-11-10T08:44:50.235Z,97.10
2022-11-10T08:47:59.513Z,97.00
2022-11-10T08:51:06.375Z,97.00
2022-11-10T08:54:10.538Z,96.80
2022-11-10T08:57:14.990Z,96.70
2022-11-10T09:00:19.630Z,96.60
2022-11-10T09:03:25.959Z,96.60
2022-11-10T09:06:30.305Z,96.60
2022-11-10T09:09:34.739Z,96.50
2022-11-10T09:12:42.061Z,96.20
2022-11-10T09:15:46.407Z,96.30
2022-11-10T09:18:51.043Z,96.10
2022-11-10T09:21:55.460Z,96.40
2022-11-10T09:24:59.585Z,95.70
2022-11-10T09:28:04.828Z,95.40
2022-11-10T09:31:12.289Z,95.20
2022-11-10T09:34:16.307Z,95.30
2022-11-10T09:37:20.664Z,94.80
2022-11-10T09:40:50.773Z,94.40
2022-11-10T09:44:16.018Z,94.20
2022-11-10T09:47:55.781Z,93.70
2022-11-10T09:51:02.940Z,92.70
2022-11-10T09:54:39.970Z,92.40
2022-11-10T09:57:48.847Z,92.20
2022-11-10T10:01:06.373Z,91.60
2022-11-10T10:04:25.431Z,91.10
2022-11-10T10:07:39.006Z,90.90
2022-11-10T10:11:00.403Z,90.80
2022-11-10T10:14:22.971Z,90.70
2022-11-10T10:17:41.491Z,90.40
2022-11-10T10:20:57.679Z,90.30
2022-11-10T10:24:10.457Z,90.10
2022-11-10T10:27:23.172Z,89.30
2022-11-10T10:30:27.430Z,88.50
2022-11-10T10:33:31.728Z,88.00
2022-11-10T10:36:35.461Z,87.30
2022-11-10T10:39:46.826Z,86.00
2022-11-10T10:42:51.473Z,85.50
2022-11-10T10:46:10.983Z,85.70
2022-11-10T10:49:29.167Z,86.10
2022-11-10T10:52:33.927Z,85.60
2022-11-10T10:55:39.453Z,85.50
2022-11-10T10:58:55.889Z,85.00
2022-11-10T11:02:05.590Z,85.40
2022-11-10T11:05:14.861Z,85.50
2022-11-10T11:08:24.172Z,85.40
2022-11-10T11:11:37.114Z,85.50
2022-11-10T11:14:45.752Z,85.50
2022-11-10T11:18:02.884Z,85.50
2022-11-10T11:21:18.945Z,85.10
2022-11-10T11:24:44.665Z,84.30
2022-11-10T11:28:10.391Z,83.70
2022-11-10T11:31:26.611Z,83.90
2022-11-10T11:34:58.695Z,83.50
2022-11-10T11:38:14.809Z,83.20
2022-11-10T11:41:24.481Z,82.50
2022-11-10T11:44:34.693Z,82.30
2022-11-10T11:48:07.886Z,82.70
2022-11-10T11:51:16.441Z,83.00
2022-11-10T11:54:47.442Z,82.60
2022-11-10T11:58:21.096Z,82.10
2022-11-10T12:01:56.143Z,82.30
2022-11-10T12:05:36.830Z,82.10
2022-11-10T12:09:04.903Z,81.60
2022-11-10T12:12:28.042Z,81.70
2022-11-10T12:15:59.425Z,81.10
2022-11-10T12:19:26.643Z,79.00
2022-11-10T12:23:11.256Z,78.10
2022-11-10T12:26:43.439Z,78.70
2022-11-10T12:29:54.027Z,78.80
2022-11-10T12:33:12.369Z,79.70
2022-11-10T12:36:27.677Z,80.40
2022-11-10T12:39:57.213Z,80.70
2022-11-10T12:43:04.834Z,80.90
2022-11-10T12:46:12.172Z,81.00
2022-11-10T12:49:28.427Z,80.70
2022-11-10T12:52:44.582Z,81.10
2022-11-10T12:55:51.820Z,80.50
2022-11-10T12:59:20.161Z,80.80
2022-11-10T13:02:45.721Z,80.60
2022-11-10T13:05:56.917Z,81.30
2022-11-10T13:09:01.564Z,80.40
2022-11-10T13:12:35.600Z,80.30
2022-11-10T13:15:56.139Z,80.20
2022-11-10T13:19:00.799Z,80.50
2022-11-10T13:22:10.236Z,81.00
2022-11-10T13:25:37.734Z,80.60
2022-11-10T13:28:47.567Z,80.80
2022-11-10T13:31:54.425Z,80.80
2022-11-10T13:35:30.593Z,80.20
2022-11-10T13:38:36.996Z,80.20
2022-11-10T13:42:04.719Z,80.30
2022-11-10T13:45:39.864Z,79.90
2022-11-10T13:49:15.678Z,79.20
2022-11-10T13:52:50.335Z,78.60
2022-11-10T13:56:16.662Z,77.50
2022-11-10T13:59:25.274Z,76.90
2022-11-10T14:02:41.281Z,77.90
2022-11-10T14:05:57.873Z,78.10
2022-11-10T14:09:15.515Z,78.30
2022-11-10T14:12:41.238Z,77.50
2022-11-10T14:15:48.342Z,78.60
2022-11-10T14:18:57.223Z,78.20
2022-11-10T14:22:14.153Z,78.00
2022-11-10T14:25:38.286Z,78.10
2022-11-10T14:28:42.776Z,78.30
2022-11-10T14:31:47.954Z,77.70
2022-11-10T14:34:54.072Z,77.30
2022-11-10T14:38:27.231Z,77.30
2022-11-10T14:41:31.843Z,76.10
2022-11-10T14:44:36.335Z,74.20
2022-11-10T14:47:40.884Z,72.70
2022-11-10T14:50:45.117Z,72.90
2022-11-10T14:53:58.466Z,73.10
2022-11-10T14:57:02.826Z,74.20
2022-11-10T15:00:17.250Z,75.60
2022-11-10T15:03:40.427Z,76.60
2022-11-10T15:06:50.014Z,77.50
2022-11-10T15:10:18.819Z,78.30
2022-11-10T15:13:33.459Z,79.00
2022-11-10T15:16:41.457Z,80.00
2022-11-10T15:19:45.511Z,80.50
2022-11-10T15:22:50.393Z,81.30
2022-11-10T15:25:55.098Z,81.70
2022-11-10T15:28:59.979Z,82.10
2022-11-10T15:32:06.986Z,82.50
2022-11-10T15:35:24.387Z,82.70
2022-11-10T15:38:31.920Z,83.00
2022-11-10T15:41:36.989Z,83.30
2022-11-10T15:44:46.790Z,83.20
2022-11-10T15:47:51.421Z,82.90
2022-11-10T15:50:58.309Z,82.90
2022-11-10T15:54:03.120Z,83.00
2022-11-10T15:57:12.722Z,83.10
2022-11-10T16:00:17.466Z,83.10
2022-11-10T16:03:23.251Z,83.10
2022-11-10T16:06:29.834Z,83.10
2022-11-10T16:09:34.104Z,83.10
2022-11-10T16:12:38.681Z,83.00
2022-11-10T16:15:43.733Z,82.80
2022-11-10T16:18:50.281Z,83.30
2022-11-10T16:21:55.119Z,83.30
2022-11-10T16:24:59.530Z,83.50
2022-11-10T16:28:05.453Z,83.40
2022-11-10T16:31:15.995Z,83.50
2022-11-10T16:34:21.219Z,83.70
2022-11-10T16:37:25.366Z,83.70
2022-11-10T16:40:29.610Z,83.70
2022-11-10T16:43:34.762Z,84.10
2022-11-10T16:46:41.299Z,84.30
2022-11-10T16:49:46.339Z,84.90
2022-11-10T16:52:51.117Z,85.00
2022-11-10T16:55:55.175Z,84.90
2022-11-10T16:58:59.577Z,85.30
2022-11-10T17:02:04.198Z,85.70
2022-11-10T17:05:14.314Z,85.80
2022-11-10T17:08:24.863Z,86.00
2022-11-10T17:11:29.198Z,86.30
2022-11-10T17:14:34.466Z,86.40
2022-11-10T17:17:52.740Z,86.50
2022-11-10T17:20:57.125Z,86.50
2022-11-10T17:24:02.726Z,87.00
2022-11-10T17:27:09.403Z,87.40
2022-11-10T17:30:14.744Z,87.70
2022-11-10T17:33:21.484Z,87.70
2022-11-10T17:36:26.278Z,88.10
2022-11-10T17:39:31.469Z,88.40
2022-11-10T17:42:35.503Z,88.90
2022-11-10T17:46:05.466Z,89.30
2022-11-10T17:49:10.081Z,89.30
2022-11-10T17:52:18.334Z,89.50
2022-11-10T17:55:25.732Z,90.00
2022-11-10T17:58:33.059Z,90.50
2022-11-10T18:01:37.350Z,90.20
2022-11-10T18:04:41.699Z,90.40
2022-11-10T18:07:49.810Z,90.50
2022-11-10T18:10:54.350Z,90.70
2022-11-10T18:14:00.823Z,90.90
2022-11-10T18:17:08.347Z,91.00
2022-11-10T18:20:14.395Z,91.10
2022-11-10T18:23:19.058Z,91.10
2022-11-10T18:26:23.357Z,91.10
2022-11-10T18:29:27.801Z,91.30
2022-11-10T18:32:32.306Z,91.30
2022-11-10T18:35:38.977Z,91.40
2022-11-10T18:38:43.293Z,91.50
2022-11-10T18:41:50.671Z,91.60
2022-11-10T18:44:54.978Z,91.80
2022-11-10T18:48:03.438Z,91.90
2022-11-10T18:51:08.592Z,91.90
2022-11-10T18:54:13.217Z,91.90
2022-11-10T18:57:17.833Z,91.90
2022-11-10T19:00:22.051Z,92.00
2022-11-10T19:03:26.553Z,92.00
2022-11-10T19:06:31.068Z,92.10
2022-11-10T19:09:35.671Z,92.10
2022-11-10T19:12:40.258Z,92.30
2022-11-10T19:15:44.486Z,92.30
2022-11-10T19:18:49.038Z,92.50
2022-11-10T19:21:53.380Z,92.60
2022-11-10T19:25:13.089Z,92.60
2022-11-10T19:28:17.442Z,92.60
2022-11-10T19:31:23.486Z,92.70
2022-11-10T19:34:31.452Z,92.80
2022-11-10T19:37:35.870Z,92.70
2022-11-10T19:40:40.745Z,92.70
2022-11-10T19:43:47.619Z,92.60
2022-11-10T19:46:51.692Z,92.50
2022-11-10T19:49:56.201Z,92.40
2022-11-10T19:53:00.456Z,92.40
2022-11-10T19:56:07.332Z,92.30
2022-11-10T19:59:32.841Z,92.10
2022-11-10T20:02:40.173Z,92.00
2022-11-10T20:06:21.237Z,92.00
2022-11-10T20:09:25.451Z,92.10
2022-11-10T20:12:29.679Z,92.10
2022-11-10T20:15:38.272Z,92.30
2022-11-10T20:18:44.223Z,92.30
2022-11-10T20:21:48.583Z,92.40
2022-11-10T20:24:52.665Z,92.50
2022-11-10T20:27:58.574Z,92.50
2022-11-10T20:31:25.892Z,92.60
2022-11-10T20:34:30.383Z,92.60
2022-11-10T20:37:34.789Z,92.90
2022-11-10T20:40:44.558Z,92.80
2022-11-10T20:43:52.197Z,92.50
2022-11-10T20:46:56.409Z,92.40
2022-11-10T20:50:00.733Z,92.30
2022-11-10T20:53:05.764Z,92.20
2022-11-10T20:56:12.271Z,92.10
2022-11-10T20:59:16.612Z,92.00
2022-11-10T21:02:20.865Z,92.00
2022-11-10T21:05:25.035Z,92.00
2022-11-10T21:08:29.922Z,92.00
2022-11-10T21:11:52.900Z,92.00
2022-11-10T21:14:57.798Z,92.00
2022-11-10T21:18:06.229Z,92.00
2022-11-10T21:21:22.660Z,91.90
2022-11-10T21:24:28.254Z,92.10
2022-11-10T21:27:32.471Z,92.20
2022-11-10T21:30:36.462Z,92.20
2022-11-10T21:33:40.947Z,92.40
2022-11-10T21:36:48.169Z,92.50
2022-11-10T21:39:52.602Z,92.70
2022-11-10T21:42:57.838Z,93.10
2022-11-10T21:46:04.391Z,93.00
2022-11-10T21:49:08.588Z,92.90
2022-11-10T21:52:12.991Z,92.90
2022-11-10T21:55:17.487Z,92.90
2022-11-10T21:58:21.683Z,92.90
2022-11-10T22:01:26.200Z,92.80
2022-11-10T22:04:34.378Z,92.80
2022-11-10T22:07:42.252Z,92.70
2022-11-10T22:11:05.271Z,92.70
2022-11-10T22:14:31.621Z,92.60
2022-11-10T22:17:56.337Z,92.60
2022-11-10T22:21:00.651Z,92.60
2022-11-10T22:24:23.586Z,92.50
2022-11-10T22:27:27.906Z,92.50
2022-11-10T22:30:32.307Z,92.30
2022-11-10T22:33:39.108Z,92.30
2022-11-10T22:36:45.123Z,92.20
2022-11-10T22:40:08.207Z,92.30
2022-11-10T22:43:30.699Z,92.30
2022-11-10T22:46:39.210Z,92.20
2022-11-10T22:49:43.606Z,92.30
2022-11-10T22:52:47.639Z,92.50
2022-11-10T22:55:52.606Z,92.50
2022-11-10T22:58:59.803Z,92.50
2022-11-10T23:02:04.571Z,92.60
2022-11-10T23:05:10.103Z,92.50
2022-11-10T23:08:14.463Z,92.50
2022-11-10T23:11:27.582Z,92.60
2022-11-10T23:14:34.557Z,92.60
2022-11-10T23:17:38.958Z,92.60
2022-11-10T23:20:43.664Z,92.60
2022-11-10T23:23:48.933Z,92.60
2022-11-10T23:26:55.944Z,92.70
2022-11-10T23:30:00.201Z,92.80
2022-11-10T23:33:04.332Z,92.90
2022-11-10T23:36:10.845Z,93.00
2022-11-10T23:39:14.729Z,93.20
2022-11-10T23:42:19.416Z,93.30
2022-11-10T23:45:27.271Z,93.40
2022-11-10T23:48:34.966Z,93.60
2022-11-10T23:51:39.495Z,93.70
2022-11-10T23:54:46.320Z,93.80
2022-11-10T23:57:50.878Z,94.00
